createdAt,value
2017-09-23T00:00:31.210Z,0
2017-09-23T00:01:31.510Z,0
2017-09-23T00:02:31.179Z,0
2017-09-23T00:03:31.826Z,0
2017-09-23T00:04:31.829Z,0
2017-09-23T00:05:31.472Z,0
2017-09-23T00:06:32.156Z,0
2017-09-23T00:07:31.467Z,0
2017-09-23T00:08:31.432Z,0
2017-09-23T00:09:31.098Z,0
2017-09-23T00:10:31.414Z,0
2017-09-23T00:11:31.081Z,0
2017-09-23T00:12:31.088Z,0
2017-09-23T00:13:31.072Z,0
2017-09-23T00:14:31.385Z,0
2017-09-23T00:15:31.033Z,0
2017-09-23T00:16:31.040Z,0
2017-09-23T00:17:31.669Z,0
2017-09-23T00:18:31.373Z,0
2017-09-23T00:19:31.867Z,0
2017-09-23T00:20:31.632Z,0
2017-09-23T00:21:30.988Z,0
2017-09-23T00:22:31.345Z,0
2017-09-23T00:23:30.940Z,0
2017-09-23T00:24:31.261Z,0
2017-09-23T00:25:31.250Z,0
2017-09-23T00:26:31.266Z,0
2017-09-23T00:27:31.567Z,0
2017-09-23T00:28:31.584Z,0
2017-09-23T00:29:30.875Z,0
2017-09-23T00:30:31.193Z,0
2017-09-23T00:31:31.198Z,0
2017-09-23T00:32:31.823Z,0
2017-09-23T00:33:31.159Z,0
2017-09-23T00:34:31.486Z,0
2017-09-23T00:35:30.804Z,0
2017-09-23T00:36:31.117Z,0
2017-09-23T00:37:31.122Z,0
2017-09-23T00:38:30.784Z,0
2017-09-23T00:39:31.433Z,0
2017-09-23T00:40:31.081Z,0
2017-09-23T00:41:30.741Z,0
2017-09-23T00:42:31.056Z,0
2017-09-23T00:43:31.053Z,0
2017-09-23T00:44:31.054Z,0
2017-09-23T00:45:31.023Z,0
2017-09-23T00:46:31.015Z,0
2017-09-23T00:47:31.006Z,0
2017-09-23T00:48:31.322Z,0
2017-09-23T00:49:31.659Z,0
2017-09-23T00:50:31.295Z,0
2017-09-23T00:51:30.978Z,0
2017-09-23T00:52:30.614Z,0
2017-09-23T00:53:30.971Z,0
2017-09-23T00:54:30.925Z,0
2017-09-23T00:55:30.917Z,0
2017-09-23T00:56:30.585Z,0
2017-09-23T00:57:30.894Z,0
2017-09-23T00:58:30.893Z,0
2017-09-23T00:59:34.845Z,0
2017-09-23T01:00:30.548Z,0
2017-09-23T01:01:30.518Z,0
2017-09-23T01:02:31.169Z,0
2017-09-23T01:03:30.844Z,0
2017-09-23T01:04:30.814Z,0
2017-09-23T01:05:30.491Z,0
2017-09-23T01:06:30.472Z,0
2017-09-23T01:07:30.784Z,0
2017-09-23T01:08:30.791Z,0
2017-09-23T01:09:31.097Z,0
2017-09-23T01:10:30.746Z,0
2017-09-23T01:11:30.410Z,0
2017-09-23T01:12:30.722Z,0
2017-09-23T01:13:30.728Z,0
2017-09-23T01:14:30.700Z,0
2017-09-23T01:15:31.022Z,0
2017-09-23T01:16:30.375Z,0
2017-09-23T01:17:30.672Z,0
2017-09-23T01:18:30.680Z,0
2017-09-23T01:19:30.670Z,0
2017-09-23T01:20:30.344Z,0
2017-09-23T01:21:30.298Z,0
2017-09-23T01:22:30.972Z,0
2017-09-23T01:23:30.668Z,0
2017-09-23T01:24:30.601Z,0
2017-09-23T01:25:30.613Z,0
2017-09-23T01:26:30.921Z,0
2017-09-23T01:27:30.926Z,0
2017-09-23T01:28:30.901Z,0
2017-09-23T01:29:30.212Z,0
2017-09-23T01:30:30.537Z,0
2017-09-23T01:31:30.510Z,0
2017-09-23T01:32:30.508Z,0
2017-09-23T01:33:30.822Z,0
2017-09-23T01:34:30.483Z,0
2017-09-23T01:35:30.468Z,0
2017-09-23T01:36:30.482Z,0
2017-09-23T01:37:30.444Z,0
2017-09-23T01:38:30.448Z,0
2017-09-23T01:39:30.097Z,0
2017-09-23T01:40:30.415Z,0
2017-09-23T01:41:30.409Z,0
2017-09-23T01:42:30.717Z,0
2017-09-23T01:43:30.381Z,0
2017-09-23T01:44:30.705Z,0
2017-09-23T01:45:30.357Z,0
2017-09-23T01:46:30.367Z,0
2017-09-23T01:47:30.668Z,0
2017-09-23T01:48:30.373Z,0
2017-09-23T01:49:29.986Z,0
2017-09-23T01:50:30.302Z,0
2017-09-23T01:51:30.302Z,0
2017-09-23T01:52:30.314Z,0
2017-09-23T01:53:30.292Z,0
2017-09-23T01:54:30.615Z,0
2017-09-23T01:55:29.924Z,0
2017-09-23T01:56:30.575Z,0
2017-09-23T01:57:29.897Z,0
2017-09-23T01:58:29.888Z,0
2017-09-23T01:59:29.875Z,0
2017-09-23T02:00:30.192Z,0
2017-09-23T02:01:29.853Z,0
2017-09-23T02:02:30.496Z,0
2017-09-23T02:03:30.154Z,0
2017-09-23T02:04:30.144Z,0
2017-09-23T02:05:29.806Z,0
2017-09-23T02:06:30.137Z,0
2017-09-23T02:07:30.165Z,0
2017-09-23T02:08:30.100Z,0
2017-09-23T02:09:29.805Z,0
2017-09-23T02:10:30.409Z,0
2017-09-23T02:11:30.084Z,0
2017-09-23T02:12:30.389Z,0
2017-09-23T02:13:30.394Z,0
2017-09-23T02:14:30.066Z,0
2017-09-23T02:15:30.071Z,0
2017-09-23T02:16:29.682Z,0
2017-09-23T02:17:30.333Z,0
2017-09-23T02:18:29.661Z,0
2017-09-23T02:19:29.998Z,0
2017-09-23T02:20:29.965Z,0
2017-09-23T02:21:29.636Z,0
2017-09-23T02:22:29.612Z,0
2017-09-23T02:23:29.954Z,0
2017-09-23T02:24:29.593Z,0
2017-09-23T02:25:29.900Z,0
2017-09-23T02:26:29.897Z,0
2017-09-23T02:27:29.875Z,0
2017-09-23T02:28:29.545Z,0
2017-09-23T02:29:30.527Z,0
2017-09-23T02:30:29.846Z,0
2017-09-23T02:31:30.161Z,0
2017-09-23T02:32:30.195Z,0
2017-09-23T02:33:29.812Z,0
2017-09-23T02:34:29.799Z,0
2017-09-23T02:35:30.115Z,0
2017-09-23T02:36:29.448Z,0
2017-09-23T02:37:29.769Z,0
2017-09-23T02:38:29.773Z,0
2017-09-23T02:39:29.759Z,0
2017-09-23T02:40:29.415Z,0
2017-09-23T02:41:30.051Z,0
2017-09-23T02:42:30.034Z,0
2017-09-23T02:43:29.363Z,0
2017-09-23T02:44:29.353Z,0
2017-09-23T02:45:30.020Z,0
2017-09-23T02:46:29.679Z,0
2017-09-23T02:47:29.975Z,0
2017-09-23T02:48:29.983Z,0
2017-09-23T02:49:29.295Z,0
2017-09-23T02:50:29.611Z,0
2017-09-23T02:51:29.965Z,0
2017-09-23T02:52:29.588Z,0
2017-09-23T02:53:30.241Z,0
2017-09-23T02:54:29.565Z,0
2017-09-23T02:55:29.557Z,0
2017-09-23T02:56:29.534Z,0
2017-09-23T02:57:29.209Z,0
2017-09-23T02:58:29.841Z,0
2017-09-23T02:59:29.538Z,0
2017-09-23T03:00:29.184Z,0
2017-09-23T03:01:29.497Z,0
2017-09-23T03:02:29.141Z,0
2017-09-23T03:03:29.458Z,0
2017-09-23T03:04:29.440Z,0
2017-09-23T03:05:29.465Z,0
2017-09-23T03:06:29.433Z,0
2017-09-23T03:07:29.410Z,0
2017-09-23T03:08:29.736Z,0
2017-09-23T03:09:29.054Z,0
2017-09-23T03:10:29.041Z,0
2017-09-23T03:11:29.692Z,0
2017-09-23T03:12:29.018Z,0
2017-09-23T03:13:29.334Z,0
2017-09-23T03:14:29.007Z,0
2017-09-23T03:15:29.010Z,0
2017-09-23T03:16:29.633Z,0
2017-09-23T03:17:29.326Z,0
2017-09-23T03:18:28.948Z,0
2017-09-23T03:19:29.263Z,0
2017-09-23T03:20:28.941Z,0
2017-09-23T03:21:29.264Z,0
2017-09-23T03:22:28.900Z,0
2017-09-23T03:23:28.907Z,0
2017-09-23T03:24:28.873Z,0
2017-09-23T03:25:29.526Z,0
2017-09-23T03:26:28.871Z,0
2017-09-23T03:27:28.840Z,0
2017-09-23T03:28:28.843Z,0
2017-09-23T03:29:29.162Z,0
2017-09-23T03:30:29.455Z,0
2017-09-23T03:31:29.463Z,0
2017-09-23T03:32:28.806Z,0
2017-09-23T03:33:29.649Z,0
2017-09-23T03:34:29.088Z,0
2017-09-23T03:35:29.412Z,0
2017-09-23T03:36:28.727Z,0
2017-09-23T03:37:29.066Z,0
2017-09-23T03:38:28.735Z,0
2017-09-23T03:39:29.056Z,0
2017-09-23T03:40:38.653Z,0
2017-09-23T03:41:29.326Z,0
2017-09-23T03:42:28.982Z,0
2017-09-23T03:43:28.993Z,0
2017-09-23T03:44:29.299Z,0
2017-09-23T03:45:28.947Z,0
2017-09-23T03:46:29.274Z,0
2017-09-23T03:47:29.249Z,0
2017-09-23T03:48:28.932Z,0
2017-09-23T03:49:28.919Z,0
2017-09-23T03:50:29.236Z,0
2017-09-23T03:51:29.221Z,0
2017-09-23T03:52:28.860Z,0
2017-09-23T03:53:28.865Z,0
2017-09-23T03:54:29.170Z,0
2017-09-23T03:55:28.496Z,0
2017-09-23T03:56:29.159Z,0
2017-09-23T03:57:28.494Z,0
2017-09-23T03:58:28.481Z,0
2017-09-23T03:59:28.457Z,0
2017-09-23T04:00:28.441Z,0
2017-09-23T04:01:28.426Z,0
2017-09-23T04:02:28.770Z,0
2017-09-23T04:03:28.402Z,0
2017-09-23T04:04:28.718Z,0
2017-09-23T04:05:29.372Z,0
2017-09-23T04:06:28.694Z,0
2017-09-23T04:07:28.724Z,0
2017-09-23T04:08:28.671Z,0
2017-09-23T04:09:28.345Z,0
2017-09-23T04:10:28.648Z,0
2017-09-23T04:11:28.336Z,0
2017-09-23T04:12:28.952Z,0
2017-09-23T04:13:28.637Z,0
2017-09-23T04:14:28.600Z,0
2017-09-23T04:15:28.588Z,0
2017-09-23T04:16:28.256Z,0
2017-09-23T04:17:28.906Z,0
2017-09-23T04:18:28.551Z,0
2017-09-23T04:19:28.550Z,0
2017-09-23T04:20:28.532Z,0
2017-09-23T04:21:28.188Z,0
2017-09-23T04:22:29.157Z,0
2017-09-23T04:23:28.183Z,0
2017-09-23T04:24:28.506Z,0
2017-09-23T04:25:28.138Z,0
2017-09-23T04:26:28.788Z,0
2017-09-23T04:27:28.773Z,0
2017-09-23T04:28:28.448Z,4
2017-09-23T04:29:28.093Z,4
2017-09-23T04:30:28.094Z,0
2017-09-23T04:31:28.069Z,4
2017-09-23T04:32:29.042Z,4
2017-09-23T04:33:28.370Z,4
2017-09-23T04:34:28.056Z,8
2017-09-23T04:35:28.026Z,8
2017-09-23T04:36:28.354Z,8
2017-09-23T04:37:28.325Z,8
2017-09-23T04:38:28.312Z,12
2017-09-23T04:39:28.656Z,16
2017-09-23T04:40:28.308Z,16
2017-09-23T04:41:28.319Z,20
2017-09-23T04:42:28.600Z,24
2017-09-23T04:43:27.948Z,28
2017-09-23T04:44:28.597Z,28
2017-09-23T04:45:27.917Z,36
2017-09-23T04:46:28.585Z,40
2017-09-23T04:47:28.560Z,44
2017-09-23T04:48:28.528Z,52
2017-09-23T04:49:27.876Z,60
2017-09-23T04:50:28.504Z,68
2017-09-23T04:51:27.852Z,76
2017-09-23T04:52:28.150Z,84
2017-09-23T04:53:28.482Z,96
2017-09-23T04:54:28.003Z,108
2017-09-23T04:55:28.114Z,116
2017-09-23T04:56:28.450Z,132
2017-09-23T04:57:28.089Z,148
2017-09-23T04:58:27.754Z,160
2017-09-23T04:59:28.069Z,180
2017-09-23T05:00:28.058Z,196
2017-09-23T05:01:28.480Z,212
2017-09-23T05:02:27.712Z,232
2017-09-23T05:03:27.691Z,256
2017-09-23T05:04:27.686Z,292
2017-09-23T05:05:27.697Z,336
2017-09-23T05:06:28.325Z,376
2017-09-23T05:07:28.654Z,408
2017-09-23T05:08:27.652Z,440
2017-09-23T05:09:27.665Z,476
2017-09-23T05:10:27.971Z,512
2017-09-23T05:11:27.948Z,544
2017-09-23T05:12:28.252Z,576
2017-09-23T05:13:27.926Z,612
2017-09-23T05:14:27.592Z,652
2017-09-23T05:15:27.588Z,700
2017-09-23T05:16:27.545Z,748
2017-09-23T05:17:28.529Z,800
2017-09-23T05:18:27.860Z,844
2017-09-23T05:19:27.838Z,888
2017-09-23T05:20:27.830Z,936
2017-09-23T05:21:27.818Z,980
2017-09-23T05:22:28.153Z,1036
2017-09-23T05:23:27.791Z,1088
2017-09-23T05:24:28.130Z,1148
2017-09-23T05:25:27.453Z,1208
2017-09-23T05:26:28.134Z,1252
2017-09-23T05:27:27.418Z,1292
2017-09-23T05:28:27.735Z,1340
2017-09-23T05:29:27.397Z,1408
2017-09-23T05:30:27.419Z,1480
2017-09-23T05:31:27.706Z,1564
2017-09-23T05:32:28.015Z,1656
2017-09-23T05:33:27.676Z,1740
2017-09-23T05:34:27.991Z,1816
2017-09-23T05:35:27.988Z,1884
2017-09-23T05:36:27.321Z,1928
2017-09-23T05:37:27.628Z,1944
2017-09-23T05:38:27.316Z,1940
2017-09-23T05:39:27.284Z,1932
2017-09-23T05:40:27.943Z,1936
2017-09-23T05:41:27.587Z,1948
2017-09-23T05:42:27.901Z,1964
2017-09-23T05:43:27.238Z,2008
2017-09-23T05:44:27.258Z,2060
2017-09-23T05:45:27.542Z,2116
2017-09-23T05:46:28.194Z,2180
2017-09-23T05:47:27.547Z,2248
2017-09-23T05:48:27.508Z,2308
2017-09-23T05:49:27.503Z,2368
2017-09-23T05:50:27.861Z,2412
2017-09-23T05:51:27.474Z,2452
2017-09-23T05:52:27.139Z,2476
2017-09-23T05:53:27.780Z,2488
2017-09-23T05:54:28.028Z,2476
2017-09-23T05:55:28.146Z,2456
2017-09-23T05:56:27.110Z,2452
2017-09-23T05:57:27.082Z,2488
2017-09-23T05:58:27.426Z,2544
2017-09-23T05:59:27.393Z,2596
2017-09-23T06:00:27.376Z,2572
2017-09-23T06:01:27.697Z,2484
2017-09-23T06:02:27.353Z,2308
2017-09-23T06:03:27.366Z,2100
2017-09-23T06:04:27.225Z,1980
2017-09-23T06:05:27.011Z,1948
2017-09-23T06:06:27.005Z,1948
2017-09-23T06:07:27.314Z,1976
2017-09-23T06:08:27.306Z,2024
2017-09-23T06:09:27.295Z,2104
2017-09-23T06:10:27.609Z,2316
2017-09-23T06:11:27.585Z,2580
2017-09-23T06:12:27.596Z,2724
2017-09-23T06:13:26.920Z,2756
2017-09-23T06:14:27.253Z,2728
2017-09-23T06:15:27.538Z,2652
2017-09-23T06:16:27.890Z,2492
2017-09-23T06:17:27.198Z,2404
2017-09-23T06:18:27.513Z,2440
2017-09-23T06:19:26.846Z,2512
2017-09-23T06:20:27.502Z,2580
2017-09-23T06:21:27.496Z,2632
2017-09-23T06:22:26.826Z,2664
2017-09-23T06:23:26.803Z,2668
2017-09-23T06:24:27.139Z,2672
2017-09-23T06:25:26.784Z,2672
2017-09-23T06:26:27.114Z,2676
2017-09-23T06:27:27.086Z,2740
2017-09-23T06:28:26.762Z,2832
2017-09-23T06:29:26.736Z,2904
2017-09-23T06:30:27.054Z,3000
2017-09-23T06:31:27.372Z,3088
2017-09-23T06:32:27.055Z,3148
2017-09-23T06:33:27.028Z,3204
2017-09-23T06:34:27.042Z,3228
2017-09-23T06:35:27.668Z,3220
2017-09-23T06:36:27.031Z,3168
2017-09-23T06:37:26.977Z,3092
2017-09-23T06:38:26.967Z,3016
2017-09-23T06:39:26.673Z,2940
2017-09-23T06:40:26.620Z,2892
2017-09-23T06:41:26.935Z,2908
2017-09-23T06:42:27.265Z,3020
2017-09-23T06:43:27.258Z,3168
2017-09-23T06:44:26.590Z,3260
2017-09-23T06:45:26.919Z,3276
2017-09-23T06:46:26.886Z,3228
2017-09-23T06:47:26.566Z,3216
2017-09-23T06:48:26.863Z,3292
2017-09-23T06:49:26.548Z,3384
2017-09-23T06:50:26.846Z,3456
2017-09-23T06:51:26.509Z,3468
2017-09-23T06:52:27.151Z,3444
2017-09-23T06:53:26.837Z,3408
2017-09-23T06:54:26.490Z,3388
2017-09-23T06:55:26.798Z,3400
2017-09-23T06:56:26.785Z,3456
2017-09-23T06:57:26.817Z,3540
2017-09-23T06:58:26.780Z,3628
2017-09-23T06:59:26.428Z,3712
2017-09-23T07:00:27.072Z,3800
2017-09-23T07:01:26.446Z,3876
2017-09-23T07:02:26.406Z,3908
2017-09-23T07:03:26.712Z,3936
2017-09-23T07:04:27.036Z,3968
2017-09-23T07:05:27.025Z,3964
2017-09-23T07:06:26.362Z,3944
2017-09-23T07:07:27.005Z,3944
2017-09-23T07:08:26.664Z,3968
2017-09-23T07:09:27.949Z,4004
2017-09-23T07:10:26.680Z,4004
2017-09-23T07:11:26.634Z,3984
2017-09-23T07:12:26.625Z,3932
2017-09-23T07:13:26.981Z,3908
2017-09-23T07:14:26.949Z,3904
2017-09-23T07:15:26.632Z,3868
2017-09-23T07:16:26.827Z,3820
2017-09-23T07:17:26.600Z,3792
2017-09-23T07:18:26.239Z,3776
2017-09-23T07:19:26.560Z,3752
2017-09-23T07:20:26.571Z,3724
2017-09-23T07:21:27.234Z,3704
2017-09-23T07:22:26.204Z,3660
2017-09-23T07:23:26.887Z,3628
2017-09-23T07:24:26.521Z,3612
2017-09-23T07:25:26.844Z,3604
2017-09-23T07:26:26.165Z,3616
2017-09-23T07:27:26.158Z,3608
2017-09-23T07:28:26.506Z,3628
2017-09-23T07:29:26.155Z,3680
2017-09-23T07:30:26.150Z,3756
2017-09-23T07:31:26.119Z,3840
2017-09-23T07:32:26.125Z,3928
2017-09-23T07:33:26.434Z,3968
2017-09-23T07:34:26.429Z,3968
2017-09-23T07:35:26.462Z,4000
2017-09-23T07:36:26.743Z,4024
2017-09-23T07:37:26.092Z,4032
2017-09-23T07:38:26.729Z,4020
2017-09-23T07:39:26.380Z,3984
2017-09-23T07:40:26.041Z,3936
2017-09-23T07:41:26.393Z,3876
2017-09-23T07:42:26.690Z,3808
2017-09-23T07:43:26.025Z,3748
2017-09-23T07:44:26.349Z,3692
2017-09-23T07:45:26.016Z,3648
2017-09-23T07:46:26.323Z,3624
2017-09-23T07:47:25.982Z,3596
2017-09-23T07:48:26.674Z,3588
2017-09-23T07:49:25.966Z,3620
2017-09-23T07:50:26.298Z,3688
2017-09-23T07:51:26.299Z,3764
2017-09-23T07:52:26.606Z,3836
2017-09-23T07:53:25.934Z,3908
2017-09-23T07:54:25.945Z,3960
2017-09-23T07:55:26.260Z,4012
2017-09-23T07:56:26.249Z,4060
2017-09-23T07:57:25.897Z,4092
2017-09-23T07:58:28.246Z,4164
2017-09-23T07:59:25.899Z,4268
2017-09-23T08:00:26.202Z,4412
2017-09-23T08:01:26.553Z,4548
2017-09-23T08:02:25.894Z,4712
2017-09-23T08:03:26.513Z,4888
2017-09-23T08:04:26.176Z,5064
2017-09-23T08:05:26.494Z,5268
2017-09-23T08:06:26.489Z,5428
2017-09-23T08:07:25.819Z,5556
2017-09-23T08:08:26.471Z,5700
2017-09-23T08:09:26.164Z,5840
2017-09-23T08:10:26.121Z,5948
2017-09-23T08:11:26.460Z,6044
2017-09-23T08:12:26.108Z,6120
2017-09-23T08:13:25.768Z,6192
2017-09-23T08:14:26.421Z,6240
2017-09-23T08:15:26.090Z,6284
2017-09-23T08:16:26.082Z,6396
2017-09-23T08:17:26.090Z,6520
2017-09-23T08:18:26.063Z,6648
2017-09-23T08:19:25.726Z,6788
2017-09-23T08:20:25.727Z,6952
2017-09-23T08:21:26.053Z,7064
2017-09-23T08:22:26.034Z,7188
2017-09-23T08:23:25.696Z,7320
2017-09-23T08:24:25.687Z,7500
2017-09-23T08:25:26.014Z,7704
2017-09-23T08:26:26.014Z,7896
2017-09-23T08:27:25.666Z,8072
2017-09-23T08:28:25.674Z,8244
2017-09-23T08:29:26.305Z,8420
2017-09-23T08:30:26.302Z,8568
2017-09-23T08:31:25.639Z,8692
2017-09-23T08:32:25.960Z,8796
2017-09-23T08:33:25.981Z,8868
2017-09-23T08:34:25.974Z,8944
2017-09-23T08:35:25.624Z,9000
2017-09-23T08:36:25.602Z,9052
2017-09-23T08:37:25.598Z,9108
2017-09-23T08:38:25.601Z,9180
2017-09-23T08:39:25.920Z,9256
2017-09-23T08:40:25.615Z,9296
2017-09-23T08:41:26.226Z,9376
2017-09-23T08:42:25.894Z,9484
2017-09-23T08:43:26.246Z,9596
2017-09-23T08:44:26.205Z,9692
2017-09-23T08:45:26.238Z,9752
2017-09-23T08:46:25.862Z,9704
2017-09-23T08:47:26.229Z,9592
2017-09-23T08:48:25.856Z,9488
2017-09-23T08:49:25.519Z,9456
2017-09-23T08:50:26.166Z,9480
2017-09-23T08:51:25.838Z,9556
2017-09-23T08:52:26.161Z,9688
2017-09-23T08:53:26.154Z,9844
2017-09-23T08:54:25.495Z,10024
2017-09-23T08:55:25.831Z,10172
2017-09-23T08:56:25.487Z,10292
2017-09-23T08:57:26.142Z,10324
2017-09-23T08:58:25.813Z,10308
2017-09-23T08:59:25.463Z,10296
2017-09-23T09:00:25.807Z,10352
2017-09-23T09:01:25.829Z,10412
2017-09-23T09:02:26.103Z,10464
2017-09-23T09:03:25.803Z,10548
2017-09-23T09:04:25.763Z,10612
2017-09-23T09:05:25.764Z,10644
2017-09-23T09:06:25.438Z,10616
2017-09-23T09:07:25.423Z,10508
2017-09-23T09:08:25.739Z,10348
2017-09-23T09:09:26.092Z,10216
2017-09-23T09:10:26.079Z,10136
2017-09-23T09:11:25.738Z,10120
2017-09-23T09:12:26.048Z,10192
2017-09-23T09:13:25.385Z,10240
2017-09-23T09:14:25.726Z,10192
2017-09-23T09:15:25.719Z,10132
2017-09-23T09:16:25.710Z,10160
2017-09-23T09:17:25.364Z,10228
2017-09-23T09:18:25.711Z,10136
2017-09-23T09:19:25.698Z,9908
2017-09-23T09:20:25.696Z,9576
2017-09-23T09:21:25.345Z,9236
2017-09-23T09:22:25.338Z,8964
2017-09-23T09:23:25.362Z,8656
2017-09-23T09:24:25.331Z,8308
2017-09-23T09:25:25.976Z,7656
2017-09-23T09:26:25.322Z,6784
2017-09-23T09:27:25.665Z,6200
2017-09-23T09:28:25.645Z,5768
2017-09-23T09:29:25.641Z,5532
2017-09-23T09:30:25.647Z,5604
2017-09-23T09:31:25.631Z,5572
2017-09-23T09:32:25.293Z,5280
2017-09-23T09:33:25.616Z,4952
2017-09-23T09:34:25.969Z,4656
2017-09-23T09:35:25.283Z,4440
2017-09-23T09:36:25.641Z,4164
2017-09-23T09:37:25.619Z,4172
2017-09-23T09:38:25.261Z,4116
2017-09-23T09:39:25.923Z,4076
2017-09-23T09:40:25.577Z,4040
2017-09-23T09:41:25.576Z,4008
2017-09-23T09:42:25.914Z,4004
2017-09-23T09:43:25.927Z,4036
2017-09-23T09:44:25.252Z,4044
2017-09-23T09:45:25.575Z,4000
2017-09-23T09:46:25.882Z,3948
2017-09-23T09:47:25.249Z,3924
2017-09-23T09:48:25.563Z,3924
2017-09-23T09:49:26.194Z,3980
2017-09-23T09:50:25.554Z,4092
2017-09-23T09:51:25.530Z,4220
2017-09-23T09:52:25.879Z,4260
2017-09-23T09:53:25.862Z,4180
2017-09-23T09:54:25.513Z,4104
2017-09-23T09:55:25.511Z,4052
2017-09-23T09:56:25.195Z,4000
2017-09-23T09:57:25.499Z,3984
2017-09-23T09:58:26.183Z,4012
2017-09-23T09:59:25.843Z,4016
2017-09-23T10:00:26.148Z,4012
2017-09-23T10:01:25.498Z,3972
2017-09-23T10:02:25.810Z,3952
2017-09-23T10:03:25.820Z,3912
2017-09-23T10:04:25.142Z,3876
2017-09-23T10:05:25.148Z,3824
2017-09-23T10:06:25.807Z,3788
2017-09-23T10:07:25.124Z,3772
2017-09-23T10:08:25.778Z,3760
2017-09-23T10:09:25.486Z,3756
2017-09-23T10:10:25.107Z,3748
2017-09-23T10:11:25.789Z,3728
2017-09-23T10:12:25.115Z,3712
2017-09-23T10:13:25.474Z,3680
2017-09-23T10:14:25.446Z,3656
2017-09-23T10:15:25.417Z,3640
2017-09-23T10:16:25.425Z,3636
2017-09-23T10:17:25.078Z,3612
2017-09-23T10:18:25.735Z,3576
2017-09-23T10:19:25.395Z,3564
2017-09-23T10:20:25.392Z,3544
2017-09-23T10:21:26.092Z,3528
2017-09-23T10:22:25.064Z,3492
2017-09-23T10:23:26.045Z,3472
2017-09-23T10:24:25.371Z,3380
2017-09-23T10:25:25.373Z,3336
2017-09-23T10:26:25.364Z,3372
2017-09-23T10:27:25.035Z,3416
2017-09-23T10:28:25.036Z,3464
2017-09-23T10:29:25.352Z,3460
2017-09-23T10:30:25.027Z,3488
2017-09-23T10:31:25.687Z,3648
2017-09-23T10:32:25.355Z,3640
2017-09-23T10:33:25.658Z,3856
2017-09-23T10:34:25.329Z,3856
2017-09-23T10:35:25.008Z,4036
2017-09-23T10:36:24.989Z,4168
2017-09-23T10:37:24.990Z,4260
2017-09-23T10:38:25.311Z,4320
2017-09-23T10:39:24.977Z,4296
2017-09-23T10:40:25.306Z,4300
2017-09-23T10:41:25.951Z,4488
2017-09-23T10:42:25.305Z,4588
2017-09-23T10:43:24.968Z,4608
2017-09-23T10:44:25.641Z,4472
2017-09-23T10:45:24.963Z,4328
2017-09-23T10:46:25.613Z,4352
2017-09-23T10:47:25.268Z,4348
2017-09-23T10:48:24.960Z,4252
2017-09-23T10:49:25.259Z,4196
2017-09-23T10:50:25.252Z,4112
2017-09-23T10:51:25.579Z,3956
2017-09-23T10:52:25.917Z,3820
2017-09-23T10:53:25.264Z,3792
2017-09-23T10:54:25.566Z,3760
2017-09-23T10:55:24.902Z,3552
2017-09-23T10:56:24.898Z,3500
2017-09-23T10:57:25.572Z,3668
2017-09-23T10:58:25.217Z,3708
2017-09-23T10:59:24.899Z,3680
2017-09-23T11:00:25.544Z,3664
2017-09-23T11:01:25.204Z,3668
2017-09-23T11:02:25.203Z,3600
2017-09-23T11:03:24.890Z,3656
2017-09-23T11:04:25.193Z,3692
2017-09-23T11:05:25.517Z,3756
2017-09-23T11:06:25.079Z,3752
2017-09-23T11:07:25.529Z,3720
2017-09-23T11:08:25.172Z,3724
2017-09-23T11:09:25.509Z,3792
2017-09-23T11:10:25.165Z,3948
2017-09-23T11:11:25.177Z,4120
2017-09-23T11:12:25.199Z,4284
2017-09-23T11:13:24.828Z,4396
2017-09-23T11:14:25.161Z,4540
2017-09-23T11:15:25.146Z,4696
2017-09-23T11:16:24.816Z,4880
2017-09-23T11:17:25.149Z,4816
2017-09-23T11:18:24.810Z,4920
2017-09-23T11:19:24.799Z,4984
2017-09-23T11:20:25.801Z,4964
2017-09-23T11:21:25.469Z,5304
2017-09-23T11:22:25.157Z,5856
2017-09-23T11:23:25.110Z,6440
2017-09-23T11:24:25.115Z,7268
2017-09-23T11:25:25.763Z,8180
2017-09-23T11:26:25.814Z,9276
2017-09-23T11:27:24.777Z,10464
2017-09-23T11:28:25.431Z,11396
2017-09-23T11:29:25.097Z,11408
2017-09-23T11:30:25.088Z,10968
2017-09-23T11:31:25.097Z,10052
2017-09-23T11:32:25.418Z,9156
2017-09-23T11:33:25.075Z,8356
2017-09-23T11:34:24.761Z,7408
2017-09-23T11:35:25.085Z,6416
2017-09-23T11:36:25.082Z,5784
2017-09-23T11:37:25.060Z,5052
2017-09-23T11:38:24.729Z,4548
2017-09-23T11:39:25.069Z,4252
2017-09-23T11:40:25.053Z,3992
2017-09-23T11:41:25.051Z,3516
2017-09-23T11:42:24.714Z,3284
2017-09-23T11:43:25.369Z,3328
2017-09-23T11:44:25.059Z,3416
2017-09-23T11:45:25.033Z,3532
2017-09-23T11:46:25.081Z,3684
2017-09-23T11:47:25.044Z,3872
2017-09-23T11:48:25.024Z,4028
2017-09-23T11:49:25.019Z,3972
2017-09-23T11:50:24.711Z,3796
2017-09-23T11:51:25.011Z,3688
2017-09-23T11:52:25.688Z,3996
2017-09-23T11:53:24.679Z,4084
2017-09-23T11:54:24.673Z,4288
2017-09-23T11:55:25.002Z,4712
2017-09-23T11:56:25.013Z,5304
2017-09-23T11:57:24.658Z,6052
2017-09-23T11:58:24.985Z,7012
2017-09-23T11:59:25.370Z,8280
2017-09-23T12:00:24.977Z,9124
2017-09-23T12:01:24.975Z,9104
2017-09-23T12:02:24.640Z,9292
2017-09-23T12:03:24.981Z,9184
2017-09-23T12:04:24.967Z,8904
2017-09-23T12:05:24.962Z,8800
2017-09-23T12:06:25.296Z,8520
2017-09-23T12:07:24.630Z,7736
2017-09-23T12:08:24.967Z,6388
2017-09-23T12:09:24.624Z,5448
2017-09-23T12:10:24.630Z,4692
2017-09-23T12:11:24.932Z,4068
2017-09-23T12:12:25.278Z,3560
2017-09-23T12:13:24.599Z,3320
2017-09-23T12:14:24.595Z,3276
2017-09-23T12:15:24.618Z,3300
2017-09-23T12:16:24.952Z,3652
2017-09-23T12:17:25.281Z,3688
2017-09-23T12:18:24.908Z,3448
2017-09-23T12:19:24.597Z,3464
2017-09-23T12:20:24.905Z,3592
2017-09-23T12:21:25.242Z,3768
2017-09-23T12:22:24.911Z,3616
2017-09-23T12:23:24.566Z,3724
2017-09-23T12:24:24.558Z,3848
2017-09-23T12:25:24.953Z,4196
2017-09-23T12:26:25.215Z,4368
2017-09-23T12:27:24.556Z,4444
2017-09-23T12:28:25.198Z,4512
2017-09-23T12:29:25.520Z,4680
2017-09-23T12:30:24.868Z,5064
2017-09-23T12:31:24.540Z,5488
2017-09-23T12:32:24.562Z,6028
2017-09-23T12:33:25.524Z,6836
2017-09-23T12:34:24.866Z,7852
2017-09-23T12:35:24.533Z,8708
2017-09-23T12:36:25.185Z,9152
2017-09-23T12:37:24.529Z,8888
2017-09-23T12:38:24.501Z,8800
2017-09-23T12:39:24.833Z,8380
2017-09-23T12:40:24.496Z,7628
2017-09-23T12:41:25.145Z,6992
2017-09-23T12:42:24.489Z,6708
2017-09-23T12:43:24.839Z,6416
2017-09-23T12:44:25.503Z,5940
2017-09-23T12:45:24.505Z,5804
2017-09-23T12:46:24.492Z,5560
2017-09-23T12:47:24.815Z,5176
2017-09-23T12:48:24.504Z,4712
2017-09-23T12:49:24.463Z,4288
2017-09-23T12:50:25.119Z,3916
2017-09-23T12:51:24.782Z,3808
2017-09-23T12:52:24.777Z,3884
2017-09-23T12:53:24.774Z,4016
2017-09-23T12:54:24.444Z,4232
2017-09-23T12:55:24.438Z,4368
2017-09-23T12:56:24.439Z,4652
2017-09-23T12:57:24.759Z,4724
2017-09-23T12:58:25.093Z,4836
2017-09-23T12:59:24.788Z,4964
2017-09-23T13:00:24.429Z,5020
2017-09-23T13:01:25.073Z,5100
2017-09-23T13:02:24.761Z,5376
2017-09-23T13:03:24.737Z,5748
2017-09-23T13:04:24.405Z,5996
2017-09-23T13:05:24.400Z,6120
2017-09-23T13:06:24.726Z,5672
2017-09-23T13:07:24.741Z,5412
2017-09-23T13:08:24.725Z,5376
2017-09-23T13:09:24.725Z,5256
2017-09-23T13:10:24.714Z,5040
2017-09-23T13:11:24.734Z,4916
2017-09-23T13:12:25.037Z,4776
2017-09-23T13:13:24.698Z,4748
2017-09-23T13:14:24.748Z,4600
2017-09-23T13:15:25.042Z,4592
2017-09-23T13:16:24.695Z,4624
2017-09-23T13:17:24.353Z,4700
2017-09-23T13:18:24.693Z,4928
2017-09-23T13:19:24.675Z,5200
2017-09-23T13:20:24.342Z,5480
2017-09-23T13:21:24.345Z,5724
2017-09-23T13:22:24.686Z,5804
2017-09-23T13:23:24.663Z,5676
2017-09-23T13:24:24.348Z,5456
2017-09-23T13:25:24.332Z,5192
2017-09-23T13:26:25.028Z,4880
2017-09-23T13:27:24.645Z,4664
2017-09-23T13:28:24.327Z,4560
2017-09-23T13:29:24.680Z,4560
2017-09-23T13:30:24.963Z,4596
2017-09-23T13:31:24.651Z,4816
2017-09-23T13:32:24.617Z,5028
2017-09-23T13:33:24.290Z,5328
2017-09-23T13:34:24.940Z,5764
2017-09-23T13:35:24.300Z,6324
2017-09-23T13:36:24.623Z,7136
2017-09-23T13:37:24.607Z,7944
2017-09-23T13:38:24.594Z,8944
2017-09-23T13:39:25.255Z,10164
2017-09-23T13:40:24.608Z,10364
2017-09-23T13:41:24.584Z,9912
2017-09-23T13:42:24.923Z,9516
2017-09-23T13:43:24.909Z,9160
2017-09-23T13:44:24.955Z,8556
2017-09-23T13:45:24.775Z,7932
2017-09-23T13:46:24.238Z,7504
2017-09-23T13:47:24.917Z,6928